sensor_id;sensor_type;location;lat;lon;timestamp;pressure;altitude;pressure_sealevel;temperature;humidity
38612;BME280;24368;52.156;20.788;2023-04-07T00:02:48;100357.08;;;3.02;100.00
38612;BME280;24368;52.156;20.788;2023-04-07T00:07:49;100356.33;;;3.00;100.00
38612;BME280;24368;52.156;20.788;2023-04-07T00:12:51;100352.04;;;2.99;100.00
38612;BME280;24368;52.156;20.788;2023-04-07T00:17:52;100343.44;;;3.01;100.00
38612;BME280;24368;52.156;20.788;2023-04-07T00:22:53;100341.23;;;3.05;100.00
38612;BME280;24368;52.156;20.788;2023-04-07T00:27:54;100345.05;;;3.12;100.00
38612;BME280;24368;52.156;20.788;2023-04-07T00:32:55;100343.95;;;3.11;100.00
38612;BME280;24368;52.156;20.788;2023-04-07T00:37:56;100341.08;;;3.09;100.00
38612;BME280;24368;52.156;20.788;2023-04-07T00:42:57;100338.39;;;3.08;100.00
38612;BME280;24368;52.156;20.788;2023-04-07T00:47:59;100340.20;;;3.14;100.00
38612;BME280;24368;52.156;20.788;2023-04-07T00:53:00;100331.62;;;3.20;100.00
38612;BME280;24368;52.156;20.788;2023-04-07T00:58:02;100322.83;;;3.16;100.00
38612;BME280;24368;52.156;20.788;2023-04-07T01:03:09;100318.96;;;3.12;100.00
38612;BME280;24368;52.156;20.788;2023-04-07T01:13:29;100308.00;;;3.17;100.00
38612;BME280;24368;52.156;20.788;2023-04-07T01:18:32;100311.38;;;3.28;100.00
38612;BME280;24368;52.156;20.788;2023-04-07T01:34:12;100305.55;;;3.34;100.00
38612;BME280;24368;52.156;20.788;2023-04-07T01:39:14;100302.23;;;3.32;100.00
38612;BME280;24368;52.156;20.788;2023-04-07T01:44:16;100305.40;;;3.32;100.00
38612;BME280;24368;52.156;20.788;2023-04-07T01:49:18;100297.11;;;3.36;100.00
38612;BME280;24368;52.156;20.788;2023-04-07T01:54:19;100297.11;;;3.43;100.00
38612;BME280;24368;52.156;20.788;2023-04-07T01:59:21;100296.58;;;3.48;100.00
38612;BME280;24368;52.156;20.788;2023-04-07T02:09:29;100296.83;;;3.44;100.00
38612;BME280;24368;52.156;20.788;2023-04-07T02:14:31;100294.52;;;3.42;100.00
38612;BME280;24368;52.156;20.788;2023-04-07T02:19:33;100300.66;;;3.49;100.00
38612;BME280;24368;52.156;20.788;2023-04-07T02:24:40;100296.31;;;3.51;100.00
38612;BME280;24368;52.156;20.788;2023-04-07T02:29:42;100298.71;;;3.59;100.00
38612;BME280;24368;52.156;20.788;2023-04-07T02:34:43;100301.00;;;3.63;100.00
38612;BME280;24368;52.156;20.788;2023-04-07T02:39:44;100299.05;;;3.59;100.00
38612;BME280;24368;52.156;20.788;2023-04-07T02:44:46;100295.77;;;3.56;100.00
38612;BME280;24368;52.156;20.788;2023-04-07T02:49:47;100295.03;;;3.62;100.00
38612;BME280;24368;52.156;20.788;2023-04-07T02:54:48;100296.43;;;3.66;100.00
38612;BME280;24368;52.156;20.788;2023-04-07T02:59:49;100290.55;;;3.73;100.00
38612;BME280;24368;52.156;20.788;2023-04-07T03:04:51;100291.06;;;3.81;100.00
38612;BME280;24368;52.156;20.788;2023-04-07T03:09:52;100290.05;;;3.85;100.00
38612;BME280;24368;52.156;20.788;2023-04-07T03:14:53;100289.64;;;3.83;100.00
38612;BME280;24368;52.156;20.788;2023-04-07T03:19:55;100296.36;;;3.75;100.00
38612;BME280;24368;52.156;20.788;2023-04-07T03:24:56;100299.91;;;3.72;100.00
38612;BME280;24368;52.156;20.788;2023-04-07T03:29:57;100296.38;;;3.77;100.00
38612;BME280;24368;52.156;20.788;2023-04-07T03:34:59;100297.98;;;3.86;100.00
38612;BME280;24368;52.156;20.788;2023-04-07T03:40:00;100295.63;;;3.89;100.00
38612;BME280;24368;52.156;20.788;2023-04-07T03:45:01;100293.89;;;3.89;100.00
38612;BME280;24368;52.156;20.788;2023-04-07T03:50:02;100291.33;;;3.89;100.00
38612;BME280;24368;52.156;20.788;2023-04-07T03:55:04;100295.46;;;3.89;100.00
38612;BME280;24368;52.156;20.788;2023-04-07T04:00:06;100291.84;;;3.91;100.00
38612;BME280;24368;52.156;20.788;2023-04-07T04:05:08;100292.29;;;4.02;100.00
38612;BME280;24368;52.156;20.788;2023-04-07T04:10:09;100293.14;;;4.07;100.00
38612;BME280;24368;52.156;20.788;2023-04-07T04:15:11;100299.51;;;4.05;100.00
38612;BME280;24368;52.156;20.788;2023-04-07T04:20:12;100299.89;;;4.03;100.00
38612;BME280;24368;52.156;20.788;2023-04-07T04:25:15;100300.58;;;4.00;100.00
38612;BME280;24368;52.156;20.788;2023-04-07T04:30:16;100299.95;;;4.06;100.00
38612;BME280;24368;52.156;20.788;2023-04-07T04:35:17;100305.33;;;4.14;100.00
38612;BME280;24368;52.156;20.788;2023-04-07T04:40:19;100304.98;;;4.21;100.00
38612;BME280;24368;52.156;20.788;2023-04-07T04:45:20;100308.41;;;4.29;100.00
38612;BME280;24368;52.156;20.788;2023-04-07T04:50:21;100313.98;;;4.31;100.00
38612;BME280;24368;52.156;20.788;2023-04-07T04:55:23;100311.48;;;4.30;100.00
38612;BME280;24368;52.156;20.788;2023-04-07T05:00:24;100310.33;;;4.34;100.00
38612;BME280;24368;52.156;20.788;2023-04-07T05:05:25;100313.47;;;4.40;100.00
38612;BME280;24368;52.156;20.788;2023-04-07T05:10:26;100304.77;;;4.45;100.00
38612;BME280;24368;52.156;20.788;2023-04-07T05:15:27;100301.92;;;4.52;100.00
38612;BME280;24368;52.156;20.788;2023-04-07T05:20:28;100304.35;;;4.59;100.00
38612;BME280;24368;52.156;20.788;2023-04-07T05:25:30;100305.18;;;4.62;100.00
38612;BME280;24368;52.156;20.788;2023-04-07T05:30:32;100310.31;;;4.63;100.00
38612;BME280;24368;52.156;20.788;2023-04-07T05:35:33;100307.55;;;4.73;100.00
38612;BME280;24368;52.156;20.788;2023-04-07T05:40:34;100311.70;;;4.82;100.00
38612;BME280;24368;52.156;20.788;2023-04-07T05:45:35;100308.13;;;4.92;100.00
38612;BME280;24368;52.156;20.788;2023-04-07T05:50:36;100307.71;;;5.04;100.00
38612;BME280;24368;52.156;20.788;2023-04-07T05:55:37;100306.66;;;5.08;100.00
38612;BME280;24368;52.156;20.788;2023-04-07T06:00:40;100306.02;;;5.10;100.00
38612;BME280;24368;52.156;20.788;2023-04-07T06:05:41;100304.52;;;5.18;100.00
38612;BME280;24368;52.156;20.788;2023-04-07T06:10:43;100305.80;;;5.28;100.00
38612;BME280;24368;52.156;20.788;2023-04-07T06:15:44;100303.84;;;5.38;100.00
38612;BME280;24368;52.156;20.788;2023-04-07T06:20:45;100305.83;;;5.48;100.00
38612;BME280;24368;52.156;20.788;2023-04-07T06:25:46;100301.42;;;5.53;100.00
38612;BME280;24368;52.156;20.788;2023-04-07T06:30:51;100303.23;;;5.52;100.00
38612;BME280;24368;52.156;20.788;2023-04-07T06:35:53;100302.16;;;5.48;100.00
38612;BME280;24368;52.156;20.788;2023-04-07T06:40:54;100299.31;;;5.57;100.00
38612;BME280;24368;52.156;20.788;2023-04-07T06:45:55;100298.86;;;5.65;100.00
38612;BME280;24368;52.156;20.788;2023-04-07T06:50:56;100299.63;;;5.67;100.00
38612;BME280;24368;52.156;20.788;2023-04-07T06:56:05;100300.69;;;5.69;100.00
38612;BME280;24368;52.156;20.788;2023-04-07T07:01:07;100295.76;;;5.69;100.00
38612;BME280;24368;52.156;20.788;2023-04-07T07:06:08;100301.20;;;5.71;100.00
38612;BME280;24368;52.156;20.788;2023-04-07T07:11:09;100306.92;;;5.82;100.00
38612;BME280;24368;52.156;20.788;2023-04-07T07:16:11;100310.55;;;5.92;100.00
38612;BME280;24368;52.156;20.788;2023-04-07T07:21:16;100304.06;;;6.11;100.00
38612;BME280;24368;52.156;20.788;2023-04-07T07:26:18;100303.67;;;6.22;100.00
38612;BME280;24368;52.156;20.788;2023-04-07T07:31:19;100309.23;;;6.29;100.00
38612;BME280;24368;52.156;20.788;2023-04-07T07:36:20;100303.98;;;6.39;100.00
38612;BME280;24368;52.156;20.788;2023-04-07T07:41:21;100311.34;;;6.39;100.00
38612;BME280;24368;52.156;20.788;2023-04-07T07:46:22;100310.23;;;6.46;100.00
38612;BME280;24368;52.156;20.788;2023-04-07T07:51:25;100314.18;;;6.47;100.00
38612;BME280;24368;52.156;20.788;2023-04-07T07:56:28;100320.84;;;6.47;100.00
38612;BME280;24368;52.156;20.788;2023-04-07T08:01:29;100318.70;;;6.50;100.00
38612;BME280;24368;52.156;20.788;2023-04-07T08:06:30;100322.73;;;6.70;100.00
38612;BME280;24368;52.156;20.788;2023-04-07T08:11:31;100322.50;;;6.90;100.00
38612;BME280;24368;52.156;20.788;2023-04-07T08:16:33;100319.17;;;7.12;100.00
38612;BME280;24368;52.156;20.788;2023-04-07T08:21:34;100320.17;;;7.38;100.00
38612;BME280;24368;52.156;20.788;2023-04-07T08:26:35;100315.98;;;7.56;100.00
38612;BME280;24368;52.156;20.788;2023-04-07T08:31:36;100314.70;;;7.63;100.00
38612;BME280;24368;52.156;20.788;2023-04-07T08:36:37;100317.38;;;7.69;100.00
38612;BME280;24368;52.156;20.788;2023-04-07T08:41:40;100321.14;;;7.66;100.00
38612;BME280;24368;52.156;20.788;2023-04-07T08:46:42;100314.75;;;7.76;100.00
38612;BME280;24368;52.156;20.788;2023-04-07T08:57:42;100315.78;;;7.71;100.00
38612;BME280;24368;52.156;20.788;2023-04-07T09:02:44;100316.80;;;7.71;100.00
38612;BME280;24368;52.156;20.788;2023-04-07T09:07:45;100317.27;;;7.79;100.00
38612;BME280;24368;52.156;20.788;2023-04-07T09:12:46;100313.77;;;7.87;100.00
38612;BME280;24368;52.156;20.788;2023-04-07T09:17:47;100313.89;;;8.07;100.00
38612;BME280;24368;52.156;20.788;2023-04-07T09:22:49;100313.86;;;8.07;100.00
38612;BME280;24368;52.156;20.788;2023-04-07T09:27:57;100306.28;;;8.14;100.00
38612;BME280;24368;52.156;20.788;2023-04-07T09:33:00;100302.36;;;8.17;100.00
38612;BME280;24368;52.156;20.788;2023-04-07T09:38:05;100303.65;;;8.21;100.00
38612;BME280;24368;52.156;20.788;2023-04-07T09:43:14;100309.23;;;8.20;100.00
38612;BME280;24368;52.156;20.788;2023-04-07T09:48:18;100306.98;;;8.21;100.00
38612;BME280;24368;52.156;20.788;2023-04-07T09:53:39;100312.80;;;8.21;100.00
38612;BME280;24368;52.156;20.788;2023-04-07T09:58:43;100313.42;;;8.30;100.00
38612;BME280;24368;52.156;20.788;2023-04-07T10:03:47;100311.16;;;8.39;100.00
38612;BME280;24368;52.156;20.788;2023-04-07T10:08:48;100315.37;;;8.51;100.00
38612;BME280;24368;52.156;20.788;2023-04-07T10:13:50;100314.67;;;8.47;100.00
38612;BME280;24368;52.156;20.788;2023-04-07T10:18:52;100317.88;;;8.45;100.00
38612;BME280;24368;52.156;20.788;2023-04-07T10:29:10;100315.05;;;8.71;100.00
38612;BME280;24368;52.156;20.788;2023-04-07T10:34:14;100316.98;;;8.77;100.00
38612;BME280;24368;52.156;20.788;2023-04-07T10:50:19;100324.50;;;8.83;100.00
38612;BME280;24368;52.156;20.788;2023-04-07T10:55:32;100329.48;;;8.86;100.00
38612;BME280;24368;52.156;20.788;2023-04-07T11:00:34;100325.61;;;8.94;100.00
38612;BME280;24368;52.156;20.788;2023-04-07T11:05:35;100328.16;;;9.02;100.00
38612;BME280;24368;52.156;20.788;2023-04-07T11:10:38;100330.27;;;9.06;100.00
38612;BME280;24368;52.156;20.788;2023-04-07T11:15:40;100333.10;;;9.13;100.00
38612;BME280;24368;52.156;20.788;2023-04-07T11:20:52;100333.40;;;9.21;100.00
38612;BME280;24368;52.156;20.788;2023-04-07T11:26:01;100334.40;;;9.27;100.00
38612;BME280;24368;52.156;20.788;2023-04-07T11:31:02;100332.55;;;9.35;100.00
38612;BME280;24368;52.156;20.788;2023-04-07T11:36:05;100328.67;;;9.30;100.00
38612;BME280;24368;52.156;20.788;2023-04-07T11:41:12;100333.92;;;9.25;100.00
38612;BME280;24368;52.156;20.788;2023-04-07T11:46:15;100333.38;;;9.32;100.00
38612;BME280;24368;52.156;20.788;2023-04-07T11:51:19;100328.02;;;9.44;100.00
38612;BME280;24368;52.156;20.788;2023-04-07T11:56:20;100329.77;;;9.51;100.00
38612;BME280;24368;52.156;20.788;2023-04-07T12:01:22;100330.86;;;9.51;100.00
38612;BME280;24368;52.156;20.788;2023-04-07T12:06:38;100331.41;;;9.44;100.00
38612;BME280;24368;52.156;20.788;2023-04-07T12:11:48;100333.23;;;9.47;100.00
38612;BME280;24368;52.156;20.788;2023-04-07T12:16:50;100337.00;;;9.56;100.00
38612;BME280;24368;52.156;20.788;2023-04-07T12:21:53;100340.27;;;9.55;100.00
38612;BME280;24368;52.156;20.788;2023-04-07T12:26:55;100340.77;;;9.57;100.00
38612;BME280;24368;52.156;20.788;2023-04-07T12:31:56;100343.01;;;9.56;100.00
38612;BME280;24368;52.156;20.788;2023-04-07T12:36:57;100346.97;;;9.67;100.00
38612;BME280;24368;52.156;20.788;2023-04-07T12:41:58;100346.41;;;9.67;100.00
38612;BME280;24368;52.156;20.788;2023-04-07T12:46:59;100351.04;;;9.70;100.00
38612;BME280;24368;52.156;20.788;2023-04-07T12:52:00;100350.60;;;9.85;100.00
38612;BME280;24368;52.156;20.788;2023-04-07T12:57:01;100360.81;;;10.03;100.00
38612;BME280;24368;52.156;20.788;2023-04-07T13:02:03;100359.63;;;10.30;100.00
38612;BME280;24368;52.156;20.788;2023-04-07T13:07:04;100369.09;;;10.74;100.00
38612;BME280;24368;52.156;20.788;2023-04-07T13:12:05;100375.60;;;10.57;100.00
38612;BME280;24368;52.156;20.788;2023-04-07T13:17:07;100378.53;;;11.41;100.00
38612;BME280;24368;52.156;20.788;2023-04-07T13:22:08;100382.91;;;10.70;100.00
38612;BME280;24368;52.156;20.788;2023-04-07T13:27:09;100383.89;;;10.52;100.00
38612;BME280;24368;52.156;20.788;2023-04-07T13:32:11;100387.61;;;10.62;100.00
38612;BME280;24368;52.156;20.788;2023-04-07T13:37:15;100392.73;;;10.51;100.00
38612;BME280;24368;52.156;20.788;2023-04-07T13:42:18;100394.20;;;10.40;100.00
38612;BME280;24368;52.156;20.788;2023-04-07T13:47:20;100393.95;;;10.25;100.00
38612;BME280;24368;52.156;20.788;2023-04-07T13:52:22;100393.20;;;10.21;100.00
38612;BME280;24368;52.156;20.788;2023-04-07T13:57:23;100397.36;;;10.20;100.00
38612;BME280;24368;52.156;20.788;2023-04-07T14:02:25;100394.88;;;10.28;100.00
38612;BME280;24368;52.156;20.788;2023-04-07T14:07:29;100393.75;;;10.55;100.00
38612;BME280;24368;52.156;20.788;2023-04-07T14:12:30;100397.16;;;10.76;100.00
38612;BME280;24368;52.156;20.788;2023-04-07T14:17:32;100403.20;;;10.54;100.00
38612;BME280;24368;52.156;20.788;2023-04-07T14:22:33;100403.27;;;10.73;100.00
38612;BME280;24368;52.156;20.788;2023-04-07T14:27:34;100407.37;;;10.83;100.00
38612;BME280;24368;52.156;20.788;2023-04-07T14:32:36;100410.61;;;10.85;100.00
38612;BME280;24368;52.156;20.788;2023-04-07T14:37:37;100427.69;;;10.81;100.00
38612;BME280;24368;52.156;20.788;2023-04-07T14:42:38;100442.95;;;10.06;100.00
38612;BME280;24368;52.156;20.788;2023-04-07T14:47:40;100454.59;;;9.30;100.00
38612;BME280;24368;52.156;20.788;2023-04-07T14:52:41;100460.77;;;8.97;100.00
38612;BME280;24368;52.156;20.788;2023-04-07T14:57:43;100464.63;;;8.74;100.00
38612;BME280;24368;52.156;20.788;2023-04-07T15:02:44;100454.27;;;8.78;100.00
38612;BME280;24368;52.156;20.788;2023-04-07T15:07:46;100468.99;;;8.92;100.00
38612;BME280;24368;52.156;20.788;2023-04-07T15:12:49;100471.13;;;8.99;100.00
38612;BME280;24368;52.156;20.788;2023-04-07T15:17:50;100482.20;;;9.09;100.00
38612;BME280;24368;52.156;20.788;2023-04-07T15:22:51;100486.95;;;9.07;100.00
38612;BME280;24368;52.156;20.788;2023-04-07T15:27:55;100495.23;;;9.04;100.00
38612;BME280;24368;52.156;20.788;2023-04-07T15:33:01;100497.62;;;9.03;100.00
38612;BME280;24368;52.156;20.788;2023-04-07T15:38:03;100501.41;;;9.04;100.00
38612;BME280;24368;52.156;20.788;2023-04-07T15:43:05;100504.34;;;9.15;100.00
38612;BME280;24368;52.156;20.788;2023-04-07T15:48:06;100507.59;;;9.18;100.00
38612;BME280;24368;52.156;20.788;2023-04-07T15:53:08;100505.88;;;9.30;100.00
38612;BME280;24368;52.156;20.788;2023-04-07T15:58:10;100512.40;;;9.30;100.00
38612;BME280;24368;52.156;20.788;2023-04-07T16:03:11;100516.59;;;9.30;100.00
38612;BME280;24368;52.156;20.788;2023-04-07T16:08:12;100515.35;;;9.29;100.00
38612;BME280;24368;52.156;20.788;2023-04-07T16:13:13;100516.52;;;9.26;100.00
38612;BME280;24368;52.156;20.788;2023-04-07T16:18:14;100517.95;;;9.16;100.00
38612;BME280;24368;52.156;20.788;2023-04-07T16:23:15;100517.53;;;9.05;100.00
38612;BME280;24368;52.156;20.788;2023-04-07T16:28:16;100531.41;;;9.09;100.00
38612;BME280;24368;52.156;20.788;2023-04-07T16:33:18;100534.08;;;9.02;100.00
38612;BME280;24368;52.156;20.788;2023-04-07T16:38:19;100545.11;;;8.97;100.00
38612;BME280;24368;52.156;20.788;2023-04-07T16:43:20;100546.63;;;8.88;100.00
38612;BME280;24368;52.156;20.788;2023-04-07T16:48:21;100558.43;;;8.74;100.00
38612;BME280;24368;52.156;20.788;2023-04-07T16:53:22;100571.23;;;8.69;100.00
38612;BME280;24368;52.156;20.788;2023-04-07T16:58:24;100581.19;;;8.65;100.00
38612;BME280;24368;52.156;20.788;2023-04-07T17:03:25;100593.07;;;8.60;100.00
38612;BME280;24368;52.156;20.788;2023-04-07T17:08:27;100602.84;;;8.49;100.00
38612;BME280;24368;52.156;20.788;2023-04-07T17:13:28;100610.50;;;8.29;100.00
38612;BME280;24368;52.156;20.788;2023-04-07T17:18:31;100620.52;;;8.19;100.00
38612;BME280;24368;52.156;20.788;2023-04-07T17:23:32;100624.66;;;8.03;100.00
38612;BME280;24368;52.156;20.788;2023-04-07T17:28:34;100633.23;;;7.95;100.00
38612;BME280;24368;52.156;20.788;2023-04-07T17:33:35;100641.91;;;7.98;100.00
38612;BME280;24368;52.156;20.788;2023-04-07T17:38:36;100650.04;;;7.95;100.00
38612;BME280;24368;52.156;20.788;2023-04-07T17:43:38;100656.52;;;7.94;100.00
38612;BME280;24368;52.156;20.788;2023-04-07T17:48:42;100663.05;;;7.91;100.00
38612;BME280;24368;52.156;20.788;2023-04-07T17:53:54;100669.24;;;7.86;100.00
38612;BME280;24368;52.156;20.788;2023-04-07T17:58:56;100678.70;;;7.82;100.00
38612;BME280;24368;52.156;20.788;2023-04-07T18:03:57;100683.52;;;7.81;100.00
38612;BME280;24368;52.156;20.788;2023-04-07T18:09:00;100689.83;;;7.83;100.00
38612;BME280;24368;52.156;20.788;2023-04-07T18:14:01;100701.19;;;7.93;100.00
38612;BME280;24368;52.156;20.788;2023-04-07T18:19:03;100704.73;;;7.83;100.00
38612;BME280;24368;52.156;20.788;2023-04-07T18:24:08;100718.80;;;7.73;100.00
38612;BME280;24368;52.156;20.788;2023-04-07T18:29:09;100722.40;;;7.70;100.00
38612;BME280;24368;52.156;20.788;2023-04-07T18:34:14;100724.67;;;7.70;100.00
38612;BME280;24368;52.156;20.788;2023-04-07T18:39:18;100730.63;;;7.78;100.00
38612;BME280;24368;52.156;20.788;2023-04-07T18:44:20;100739.86;;;7.73;100.00
38612;BME280;24368;52.156;20.788;2023-04-07T18:49:22;100747.55;;;7.65;100.00
38612;BME280;24368;52.156;20.788;2023-04-07T18:54:23;100753.92;;;7.57;100.00
38612;BME280;24368;52.156;20.788;2023-04-07T18:59:30;100754.42;;;7.49;100.00
38612;BME280;24368;52.156;20.788;2023-04-07T19:04:31;100761.38;;;7.49;100.00
38612;BME280;24368;52.156;20.788;2023-04-07T19:09:33;100771.90;;;7.51;100.00
38612;BME280;24368;52.156;20.788;2023-04-07T19:14:35;100778.21;;;7.49;100.00
38612;BME280;24368;52.156;20.788;2023-04-07T19:19:38;100786.77;;;7.43;100.00
38612;BME280;24368;52.156;20.788;2023-04-07T19:24:40;100793.37;;;7.44;100.00
38612;BME280;24368;52.156;20.788;2023-04-07T19:29:44;100797.77;;;7.38;100.00
38612;BME280;24368;52.156;20.788;2023-04-07T19:34:55;100803.00;;;7.40;100.00
38612;BME280;24368;52.156;20.788;2023-04-07T19:39:57;100810.27;;;7.41;100.00
38612;BME280;24368;52.156;20.788;2023-04-07T19:44:59;100813.48;;;7.36;100.00
38612;BME280;24368;52.156;20.788;2023-04-07T19:50:03;100816.29;;;7.34;100.00
38612;BME280;24368;52.156;20.788;2023-04-07T19:55:05;100822.08;;;7.34;100.00
38612;BME280;24368;52.156;20.788;2023-04-07T20:00:09;100829.10;;;7.18;100.00
38612;BME280;24368;52.156;20.788;2023-04-07T20:05:11;100832.79;;;7.20;100.00
38612;BME280;24368;52.156;20.788;2023-04-07T20:10:13;100842.73;;;7.21;100.00
38612;BME280;24368;52.156;20.788;2023-04-07T20:15:14;100848.63;;;7.33;100.00
38612;BME280;24368;52.156;20.788;2023-04-07T20:20:17;100858.09;;;7.30;100.00
38612;BME280;24368;52.156;20.788;2023-04-07T20:25:18;100867.19;;;7.19;100.00
38612;BME280;24368;52.156;20.788;2023-04-07T20:30:20;100870.91;;;7.10;100.00
38612;BME280;24368;52.156;20.788;2023-04-07T20:35:22;100876.35;;;7.03;100.00
38612;BME280;24368;52.156;20.788;2023-04-07T20:40:24;100879.65;;;6.92;100.00
38612;BME280;24368;52.156;20.788;2023-04-07T20:45:25;100887.14;;;6.97;100.00
38612;BME280;24368;52.156;20.788;2023-04-07T20:50:27;100892.02;;;7.04;100.00
38612;BME280;24368;52.156;20.788;2023-04-07T20:55:28;100893.54;;;6.94;100.00
38612;BME280;24368;52.156;20.788;2023-04-07T21:00:29;100899.76;;;6.69;100.00
38612;BME280;24368;52.156;20.788;2023-04-07T21:05:30;100900.54;;;6.56;100.00
38612;BME280;24368;52.156;20.788;2023-04-07T21:10:31;100906.25;;;6.55;100.00
38612;BME280;24368;52.156;20.788;2023-04-07T21:15:32;100916.61;;;6.50;100.00
38612;BME280;24368;52.156;20.788;2023-04-07T21:20:37;100916.01;;;6.20;100.00
38612;BME280;24368;52.156;20.788;2023-04-07T21:25:38;100915.48;;;5.99;100.00
38612;BME280;24368;52.156;20.788;2023-04-07T21:30:39;100926.52;;;5.96;100.00
38612;BME280;24368;52.156;20.788;2023-04-07T21:35:43;100931.30;;;5.95;100.00
38612;BME280;24368;52.156;20.788;2023-04-07T21:40:45;100936.98;;;6.04;100.00
38612;BME280;24368;52.156;20.788;2023-04-07T21:45:46;100936.40;;;5.87;100.00
38612;BME280;24368;52.156;20.788;2023-04-07T21:50:49;100945.10;;;5.78;100.00
38612;BME280;24368;52.156;20.788;2023-04-07T21:55:51;100949.77;;;5.71;100.00
38612;BME280;24368;52.156;20.788;2023-04-07T22:00:52;100949.52;;;5.77;100.00
38612;BME280;24368;52.156;20.788;2023-04-07T22:05:57;100952.52;;;5.99;100.00
38612;BME280;24368;52.156;20.788;2023-04-07T22:10:59;100952.15;;;5.99;100.00
38612;BME280;24368;52.156;20.788;2023-04-07T22:16:01;100954.07;;;5.99;100.00
38612;BME280;24368;52.156;20.788;2023-04-07T22:21:02;100956.20;;;5.97;100.00
38612;BME280;24368;52.156;20.788;2023-04-07T22:26:03;100959.69;;;5.92;100.00
38612;BME280;24368;52.156;20.788;2023-04-07T22:31:05;100957.56;;;5.84;100.00
38612;BME280;24368;52.156;20.788;2023-04-07T22:36:06;100960.43;;;5.88;100.00
38612;BME280;24368;52.156;20.788;2023-04-07T22:41:07;100966.78;;;5.93;100.00
38612;BME280;24368;52.156;20.788;2023-04-07T22:46:08;100963.73;;;5.91;100.00
38612;BME280;24368;52.156;20.788;2023-04-07T22:51:09;100968.86;;;5.90;100.00
38612;BME280;24368;52.156;20.788;2023-04-07T22:56:11;100966.67;;;5.89;100.00
38612;BME280;24368;52.156;20.788;2023-04-07T23:01:12;100966.20;;;5.74;100.00
38612;BME280;24368;52.156;20.788;2023-04-07T23:06:13;100965.73;;;5.78;100.00
38612;BME280;24368;52.156;20.788;2023-04-07T23:11:15;100972.88;;;5.66;100.00
38612;BME280;24368;52.156;20.788;2023-04-07T23:16:16;100975.90;;;5.62;100.00
38612;BME280;24368;52.156;20.788;2023-04-07T23:21:17;100971.92;;;5.61;100.00
38612;BME280;24368;52.156;20.788;2023-04-07T23:26:19;100971.37;;;5.52;100.00
38612;BME280;24368;52.156;20.788;2023-04-07T23:31:20;100972.96;;;5.49;100.00
38612;BME280;24368;52.156;20.788;2023-04-07T23:36:21;100971.36;;;5.47;100.00
38612;BME280;24368;52.156;20.788;2023-04-07T23:41:22;100975.30;;;5.48;100.00
38612;BME280;24368;52.156;20.788;2023-04-07T23:46:24;100973.30;;;5.52;100.00
38612;BME280;24368;52.156;20.788;2023-04-07T23:51:25;100973.27;;;5.37;100.00
38612;BME280;24368;52.156;20.788;2023-04-07T23:56:27;100976.77;;;5.37;100.00
